Time;durP1;ratioP1;P1;durP2;ratioP2;P2;SDS_P1;SDS_P2;PMS_P1;PMS_P2;Temp;Humidity;BMP_temperature;BMP_pressure;BME280_temperature;BME280_humidity;BME280_pressure;Samples;Min_cycle;Max_cycle;Signal;HPM_P1;HPM_P2
2024/02/06 06:02:46;;;;;;;12.82;3.38;;;;;;;;;;5020477;27;20397;-63
2024/02/06 06:05:18;;;;;;;10.98;3.15;;;;;;;;;;5022848;28;20049;-64
2024/02/06 06:07:54;;;;;;;10.40;2.47;;;;;;;;;;5032488;28;20144;-63
2024/02/06 06:10:21;;;;;;;17.15;3.10;;;;;;;;;;5061405;28;20049;-62
2024/02/06 06:12:51;;;;;;;11.13;3.63;;;;;;;;;;4949664;28;20055;-62
2024/02/06 06:15:21;;;;;;;25.65;7.63;;;;;;;;;;4977552;28;20061;-63
2024/02/06 06:17:52;;;;;;;13.52;3.15;;;;;;;;;;4988182;28;20084;-63
2024/02/06 06:20:20;;;;;;;16.92;4.15;;;;;;;;;;5041465;28;20045;-62
2024/02/06 06:22:47;;;;;;;16.35;3.95;;;;;;;;;;5003258;28;20048;-62
2024/02/06 06:25:14;;;;;;;18.90;3.00;;;;;;;;;;5041288;28;20130;-63
2024/02/06 06:27:43;;;;;;;10.63;2.67;;;;;;;;;;5028022;28;20045;-62
2024/02/06 06:30:11;;;;;;;13.75;3.47;;;;;;;;;;5027434;28;20143;-62
2024/02/06 06:32:40;;;;;;;16.70;3.10;;;;;;;;;;4989143;28;20247;-62
2024/02/06 06:35:09;;;;;;;7.50;3.30;;;;;;;;;;5020656;28;20140;-62
2024/02/06 06:37:36;;;;;;;16.25;2.95;;;;;;;;;;5025576;28;20071;-62
2024/02/06 06:40:04;;;;;;;17.73;3.78;;;;;;;;;;5023874;28;20049;-64
2024/02/06 06:42:31;;;;;;;;;;;;;;;;;;5028989;28;20222;-65
2024/02/06 06:44:58;;;;;;;13.43;3.33;;;;;;;;;;5044947;28;19921;-63
2024/02/06 06:47:24;;;;;;;20.50;4.00;;;;;;;;;;5035698;28;20135;-63
2024/02/06 06:49:51;;;;;;;12.98;3.67;;;;;;;;;;5035381;28;20115;-63
2024/02/06 06:52:19;;;;;;;16.05;4.32;;;;;;;;;;5025750;28;20061;-63
2024/02/06 06:54:46;;;;;;;17.48;3.72;;;;;;;;;;5036951;28;20057;-64
2024/02/06 06:57:12;;;;;;;21.88;4.10;;;;;;;;;;5040131;28;20065;-64
2024/02/06 06:59:39;;;;;;;11.07;2.58;;;;;;;;;;5034159;28;20068;-64
2024/02/06 07:02:06;;;;;;;17.27;5.03;;;;;;;;;;5027503;28;20103;-64
2024/02/06 07:04:34;;;;;;;15.77;4.82;;;;;;;;;;5034110;28;20052;-63
2024/02/06 07:07:01;;;;;;;14.43;2.90;;;;;;;;;;5033623;28;20079;-63
2024/02/06 07:09:29;;;;;;;17.85;3.20;;;;;;;;;;5033626;28;20073;-63
2024/02/06 07:11:57;;;;;;;21.58;2.63;;;;;;;;;;5024260;28;20164;-62
2024/02/06 07:14:24;;;;;;;17.63;3.17;;;;;;;;;;4995377;28;20044;-62
2024/02/06 07:16:51;;;;;;;11.00;2.70;;;;;;;;;;5026650;28;20315;-62
2024/02/06 07:19:22;;;;;;;20.40;3.63;;;;;;;;;;5025818;28;20056;-62
2024/02/06 07:22:03;;;;;;;13.88;2.78;;;;;;;;;;5014457;28;20053;-65
2024/02/06 07:24:34;;;;;;;18.98;3.90;;;;;;;;;;5000077;28;20053;-62
2024/02/06 07:27:00;;;;;;;17.30;3.30;;;;;;;;;;5025881;28;20218;-62
2024/02/06 07:29:27;;;;;;;15.38;2.45;;;;;;;;;;5021493;28;20057;-62
2024/02/06 07:31:54;;;;;;;14.18;2.95;;;;;;;;;;5014273;28;20061;-62
2024/02/06 07:34:21;;;;;;;11.60;2.63;;;;;;;;;;5008597;28;20053;-62
2024/02/06 07:36:48;;;;;;;15.07;3.10;;;;;;;;;;5023964;28;20061;-62
2024/02/06 07:39:14;;;;;;;13.52;2.78;;;;;;;;;;5020088;28;20061;-62
2024/02/06 07:41:43;;;;;;;19.15;3.42;;;;;;;;;;5018275;28;20108;-62
2024/02/06 07:44:10;;;;;;;19.08;3.38;;;;;;;;;;5004857;28;20117;-65
2024/02/06 07:46:37;;;;;;;19.67;3.90;;;;;;;;;;5024670;28;20065;-63
2024/02/06 07:49:04;;;;;;;12.60;3.75;;;;;;;;;;5024258;28;20061;-62
2024/02/06 07:51:31;;;;;;;7.80;2.88;;;;;;;;;;5030635;28;20061;-62
2024/02/06 07:53:59;;;;;;;16.20;2.75;;;;;;;;;;4956300;28;20045;-63
2024/02/06 07:56:30;;;;;;;8.75;2.28;;;;;;;;;;5008298;28;20054;-63
2024/02/06 07:58:59;;;;;;;22.05;2.78;;;;;;;;;;4996309;28;20108;-63
2024/02/06 08:01:28;;;;;;;11.85;2.67;;;;;;;;;;5010525;28;20095;-62
2024/02/06 08:03:54;;;;;;;15.63;3.50;;;;;;;;;;4982772;28;20111;-62
2024/02/06 08:06:22;;;;;;;8.50;2.10;;;;;;;;;;5020527;28;20057;-62
2024/02/06 08:08:49;;;;;;;13.17;3.00;;;;;;;;;;5033153;28;20136;-63
2024/02/06 08:11:22;;;;;;;10.57;3.60;;;;;;;;;;5033505;28;20052;-63
2024/02/06 08:13:51;;;;;;;15.60;4.10;;;;;;;;;;4963870;28;20056;-62
2024/02/06 08:16:22;;;;;;;11.80;4.07;;;;;;;;;;5014158;28;20089;-62
2024/02/06 08:18:53;;;;;;;11.15;3.30;;;;;;;;;;5011965;28;20057;-63
2024/02/06 08:21:20;;;;;;;14.40;3.53;;;;;;;;;;5016807;28;20099;-63
2024/02/06 08:23:47;;;;;;;15.63;2.67;;;;;;;;;;4956215;28;20057;-63
2024/02/06 08:26:14;;;;;;;13.48;2.30;;;;;;;;;;5020716;28;20057;-63
2024/02/06 08:28:41;;;;;;;6.75;2.08;;;;;;;;;;5016826;28;20103;-63
2024/02/06 08:31:08;;;;;;;10.10;2.67;;;;;;;;;;5014617;28;20049;-63
2024/02/06 08:33:36;;;;;;;13.82;2.50;;;;;;;;;;4970936;28;20050;-63
2024/02/06 08:36:06;;;;;;;9.10;2.60;;;;;;;;;;5001993;28;20053;-63
2024/02/06 08:38:33;;;;;;;10.90;2.78;;;;;;;;;;5004918;28;20171;-62
2024/02/06 08:41:00;;;;;;;10.93;1.95;;;;;;;;;;5008720;28;20049;-63
2024/02/06 08:43:26;;;;;;;11.63;2.50;;;;;;;;;;4973867;28;20120;-62
2024/02/06 08:45:56;;;;;;;10.80;1.90;;;;;;;;;;5010476;28;20053;-63
2024/02/06 08:48:25;;;;;;;19.55;2.95;;;;;;;;;;5018232;28;20046;-63
2024/02/06 08:50:55;;;;;;;6.03;1.35;;;;;;;;;;5025276;28;20068;-62
2024/02/06 08:53:25;;;;;;;13.57;2.60;;;;;;;;;;4966623;28;20053;-62
2024/02/06 08:55:57;;;;;;;5.45;1.77;;;;;;;;;;5020528;28;20052;-63
2024/02/06 08:58:23;;;;;;;9.77;2.45;;;;;;;;;;5021278;28;20053;-62
2024/02/06 09:00:53;;;;;;;15.27;2.67;;;;;;;;;;5025194;28;20068;-62
2024/02/06 09:03:20;;;;;;;17.75;3.97;;;;;;;;;;4992184;28;20148;-63
2024/02/06 09:05:47;;;;;;;20.48;4.05;;;;;;;;;;5024412;28;20046;-63
2024/02/06 09:08:18;;;;;;;12.00;2.35;;;;;;;;;;5029945;28;20120;-62
2024/02/06 09:10:49;;;;;;;17.00;2.42;;;;;;;;;;5027601;28;20053;-62
2024/02/06 09:13:21;;;;;;;17.02;3.00;;;;;;;;;;4964889;28;20112;-64
2024/02/06 09:16:06;;;;;;;;;;;;;;;;;;;;;
2024/02/06 09:18:53;;;;;;;7.07;2.33;;;;;;;;;;5002425;28;20057;-62
2024/02/06 09:21:23;;;;;;;16.48;2.45;;;;;;;;;;5006001;28;20049;-64
2024/02/06 09:23:52;;;;;;;6.68;1.67;;;;;;;;;;4974909;28;20164;-63
2024/02/06 09:26:19;;;;;;;8.73;1.70;;;;;;;;;;5014748;28;20060;-63
2024/02/06 09:28:47;;;;;;;12.85;2.33;;;;;;;;;;5024407;28;20057;-64
2024/02/06 09:31:14;;;;;;;9.93;2.42;;;;;;;;;;5030855;28;20053;-62
2024/02/06 09:33:48;;;;;;;14.38;2.95;;;;;;;;;;4974859;28;20057;-62
2024/02/06 09:36:17;;;;;;;7.40;1.63;;;;;;;;;;5004682;28;20050;-62
2024/02/06 09:38:46;;;;;;;8.75;1.63;;;;;;;;;;5012125;28;20129;-62
2024/02/06 09:41:22;;;;;;;18.90;2.58;;;;;;;;;;5001086;28;20115;-62
2024/02/06 09:43:49;;;;;;;7.10;1.80;;;;;;;;;;5007368;28;20069;-63
2024/02/06 09:46:18;;;;;;;7.90;2.25;;;;;;;;;;5014527;28;20057;-62
2024/02/06 09:48:49;;;;;;;5.07;1.13;;;;;;;;;;5026606;28;20049;-63
2024/02/06 09:51:17;;;;;;;5.78;1.50;;;;;;;;;;5019308;28;20048;-63
2024/02/06 09:53:57;;;;;;;16.90;2.35;;;;;;;;;;4999412;28;20052;-64
2024/02/06 09:56:26;;;;;;;5.40;1.63;;;;;;;;;;5023433;28;20200;-62
2024/02/06 09:58:57;;;;;;;6.90;1.25;;;;;;;;;;5015338;28;20057;-62
2024/02/06 10:01:38;;;;;;;;;;;;;;;;;;;;;
2024/02/06 10:04:21;;;;;;;4.13;1.05;;;;;;;;;;4929078;28;20054;-64
2024/02/06 10:06:50;;;;;;;11.48;1.90;;;;;;;;;;4989614;28;20050;-64
2024/02/06 10:09:18;;;;;;;9.73;1.90;;;;;;;;;;4954652;28;20150;-64
2024/02/06 10:11:55;;;;;;;8.93;1.80;;;;;;;;;;4977198;28;20061;-63
2024/02/06 10:14:23;;;;;;;12.60;2.70;;;;;;;;;;4954460;28;20055;-63
2024/02/06 10:16:53;;;;;;;8.70;1.80;;;;;;;;;;5007878;28;20065;-63
2024/02/06 10:19:39;;;;;;;4.50;1.48;;;;;;;;;;5030598;28;20048;-63
2024/02/06 10:22:08;;;;;;;7.60;1.42;;;;;;;;;;5023328;28;20142;-62
2024/02/06 10:24:37;;;;;;;9.00;2.15;;;;;;;;;;4991289;28;20053;-63
2024/02/06 10:27:06;;;;;;;6.30;1.20;;;;;;;;;;5016534;28;20123;-63
2024/02/06 10:29:35;;;;;;;4.85;1.70;;;;;;;;;;5033781;28;20276;-64
2024/02/06 10:32:13;;;;;;;12.63;1.63;;;;;;;;;;5016624;28;20076;-62
2024/02/06 10:34:40;;;;;;;13.43;1.90;;;;;;;;;;5014735;28;20061;-63
2024/02/06 10:37:06;;;;;;;6.70;1.73;;;;;;;;;;5014810;28;20069;-63
2024/02/06 10:39:35;;;;;;;14.48;2.25;;;;;;;;;;5037673;28;20135;-63
2024/02/06 10:42:04;;;;;;;4.75;1.45;;;;;;;;;;5014652;28;20166;-61
2024/02/06 10:44:35;;;;;;;;;;;;;;;;;;5004199;28;20056;-62
2024/02/06 10:47:02;;;;;;;10.00;2.28;;;;;;;;;;5016064;28;19964;-62
2024/02/06 10:49:31;;;;;;;19.38;2.10;;;;;;;;;;5020993;28;20132;-62
2024/02/06 10:52:06;;;;;;;17.00;1.88;;;;;;;;;;5017333;28;20049;-62
2024/02/06 10:54:35;;;;;;;15.32;1.80;;;;;;;;;;5021998;28;20057;-61
2024/02/06 10:57:06;;;;;;;17.25;2.95;;;;;;;;;;5036391;28;20088;-62
2024/02/06 11:00:00;;;;;;;11.48;1.60;;;;;;;;;;5027605;28;20072;-62
2024/02/06 11:02:30;;;;;;;19.20;2.22;;;;;;;;;;5044056;28;20184;-62
2024/02/06 11:05:03;;;;;;;11.80;2.40;;;;;;;;;;4950050;28;20096;-62
2024/02/06 11:07:34;;;;;;;16.17;2.10;;;;;;;;;;5023084;28;20068;-62
2024/02/06 11:10:04;;;;;;;6.90;2.08;;;;;;;;;;5030144;28;20068;-61
2024/02/06 11:12:32;;;;;;;5.95;1.45;;;;;;;;;;5019772;28;20250;-62
2024/02/06 11:15:03;;;;;;;3.58;1.25;;;;;;;;;;5014930;28;20064;-61
2024/02/06 11:17:33;;;;;;;5.95;1.40;;;;;;;;;;5020152;28;20080;-62
2024/02/06 11:20:09;;;;;;;12.98;2.10;;;;;;;;;;5015463;28;20064;-62
2024/02/06 11:22:37;;;;;;;11.05;2.33;;;;;;;;;;5036834;28;20057;-63
2024/02/06 11:25:09;;;;;;;9.27;2.10;;;;;;;;;;4994575;28;20084;-62
2024/02/06 11:27:37;;;;;;;10.00;2.03;;;;;;;;;;5038040;28;20232;-64
2024/02/06 11:30:09;;;;;;;9.45;1.63;;;;;;;;;;5018445;28;20148;-63
2024/02/06 11:32:36;;;;;;;10.70;1.77;;;;;;;;;;5022449;28;20068;-62
2024/02/06 11:35:11;;;;;;;10.93;3.05;;;;;;;;;;4991827;28;20107;-61
2024/02/06 11:37:37;;;;;;;15.50;2.42;;;;;;;;;;5025836;28;20092;-62
2024/02/06 11:40:06;;;;;;;8.75;1.95;;;;;;;;;;5024850;28;20084;-63
2024/02/06 11:42:34;;;;;;;8.43;1.80;;;;;;;;;;5036223;28;20053;-62
2024/02/06 11:45:22;;;;;;;13.43;2.22;;;;;;;;;;4992023;28;20044;-62
2024/02/06 11:47:55;;;;;;;8.55;2.10;;;;;;;;;;5016868;28;20064;-63
2024/02/06 11:50:33;;;;;;;4.25;1.52;;;;;;;;;;5035835;28;20056;-62
2024/02/06 11:53:03;;;;;;;3.72;1.33;;;;;;;;;;5020731;28;20046;-62
2024/02/06 11:55:30;;;;;;;13.38;2.35;;;;;;;;;;4992585;28;20057;-62
2024/02/06 11:58:00;;;;;;;7.60;2.05;;;;;;;;;;5018130;28;20050;-61
2024/02/06 12:00:29;;;;;;;8.15;1.70;;;;;;;;;;5025480;28;20045;-62
2024/02/06 12:02:58;;;;;;;9.15;1.27;;;;;;;;;;5020620;28;20063;-62
2024/02/06 12:05:26;;;;;;;5.47;1.58;;;;;;;;;;5009973;28;20049;-61
2024/02/06 12:07:57;;;;;;;6.50;1.60;;;;;;;;;;5022614;28;20148;-62
2024/02/06 12:10:25;;;;;;;6.53;1.42;;;;;;;;;;5031611;28;20310;-62
2024/02/06 12:12:54;;;;;;;6.25;1.13;;;;;;;;;;5013421;28;20108;-62
2024/02/06 12:15:26;;;;;;;7.95;1.25;;;;;;;;;;5011118;28;20058;-62
2024/02/06 12:17:55;;;;;;;6.45;1.20;;;;;;;;;;5013955;28;20063;-64
2024/02/06 12:20:24;;;;;;;8.30;1.60;;;;;;;;;;5015266;28;20049;-64
2024/02/06 12:23:02;;;;;;;12.85;1.50;;;;;;;;;;5009768;28;20053;-62
2024/02/06 12:25:33;;;;;;;4.05;1.13;;;;;;;;;;5019975;28;20057;-63
2024/02/06 12:28:01;;;;;;;7.55;1.55;;;;;;;;;;5013970;28;20140;-63
2024/02/06 12:30:31;;;;;;;12.87;3.03;;;;;;;;;;5018948;28;20068;-62
2024/02/06 12:33:02;;;;;;;8.00;1.73;;;;;;;;;;5021982;28;20057;-63
2024/02/06 12:35:30;;;;;;;8.10;1.52;;;;;;;;;;4962070;28;20096;-63
2024/02/06 12:37:58;;;;;;;7.15;1.70;;;;;;;;;;4994660;28;20057;-62
2024/02/06 12:40:27;;;;;;;6.20;1.67;;;;;;;;;;5010290;28;20192;-62
2024/02/06 12:42:58;;;;;;;15.85;2.25;;;;;;;;;;5009140;28;20045;-62
2024/02/06 12:45:29;;;;;;;15.75;2.15;;;;;;;;;;4977646;28;20056;-63
2024/02/06 12:47:57;;;;;;;9.32;1.85;;;;;;;;;;5022129;28;20045;-63
2024/02/06 12:50:27;;;;;;;22.50;2.88;;;;;;;;;;5034244;28;20140;-62
2024/02/06 12:52:55;;;;;;;9.57;1.70;;;;;;;;;;5022021;28;20060;-62
2024/02/06 12:55:22;;;;;;;10.77;2.05;;;;;;;;;;5003454;28;20057;-62
2024/02/06 12:57:51;;;;;;;13.52;2.10;;;;;;;;;;5002025;28;20065;-62
2024/02/06 13:00:19;;;;;;;9.30;1.60;;;;;;;;;;5004590;28;20046;-64
2024/02/06 13:02:46;;;;;;;19.15;2.58;;;;;;;;;;4988760;28;20058;-63
2024/02/06 13:05:13;;;;;;;24.30;1.65;;;;;;;;;;4995197;28;20061;-62
2024/02/06 13:07:45;;;;;;;3.45;1.17;;;;;;;;;;5029976;28;20049;-62
2024/02/06 13:10:14;;;;;;;12.48;2.20;;;;;;;;;;5003525;28;21397;-63
2024/02/06 13:12:41;;;;;;;10.55;1.98;;;;;;;;;;5014198;28;20059;-62
2024/02/06 13:15:12;;;;;;;16.52;2.35;;;;;;;;;;5011287;28;20051;-62
2024/02/06 13:17:38;;;;;;;14.73;2.08;;;;;;;;;;5020998;28;20059;-61
2024/02/06 13:20:12;;;;;;;3.90;1.48;;;;;;;;;;5019414;28;20052;-62
2024/02/06 13:22:40;;;;;;;15.65;2.30;;;;;;;;;;5031504;28;20057;-62
2024/02/06 13:25:09;;;;;;;9.70;1.92;;;;;;;;;;5010908;28;20110;-63
2024/02/06 13:27:36;;;;;;;14.40;1.90;;;;;;;;;;5021448;28;20053;-62
2024/02/06 13:30:16;;;;;;;6.55;1.58;;;;;;;;;;5026874;28;20108;-63
2024/02/06 13:32:43;;;;;;;17.77;2.17;;;;;;;;;;5041370;28;20058;-62
2024/02/06 13:35:09;;;;;;;13.50;2.83;;;;;;;;;;5011926;28;20049;-62
2024/02/06 13:37:36;;;;;;;12.18;2.45;;;;;;;;;;5020473;28;20057;-62
2024/02/06 13:40:06;;;;;;;8.60;1.70;;;;;;;;;;5016165;28;20159;-62
2024/02/06 13:42:35;;;;;;;12.25;2.22;;;;;;;;;;5034549;28;20049;-62
2024/02/06 13:45:04;;;;;;;;;;;;;;;;;;4991625;28;20067;-62
2024/02/06 13:47:33;;;;;;;7.07;1.13;;;;;;;;;;5021049;28;19932;-62
2024/02/06 13:50:00;;;;;;;10.65;2.22;;;;;;;;;;5042078;28;20094;-64
2024/02/06 13:52:27;;;;;;;7.40;1.85;;;;;;;;;;5032049;28;20056;-61
2024/02/06 13:54:54;;;;;;;20.45;2.65;;;;;;;;;;4986797;28;20057;-63
2024/02/06 13:57:20;;;;;;;12.38;2.80;;;;;;;;;;5020079;28;20059;-62
2024/02/06 13:59:54;;;;;;;26.40;4.00;;;;;;;;;;5028564;28;20060;-63
2024/02/06 14:02:21;;;;;;;17.70;2.30;;;;;;;;;;5028269;28;21032;-62
2024/02/06 14:04:48;;;;;;;7.15;1.45;;;;;;;;;;5010662;28;20088;-62
2024/02/06 14:07:15;;;;;;;9.32;1.50;;;;;;;;;;5030653;28;20052;-62
2024/02/06 14:09:42;;;;;;;22.33;2.83;;;;;;;;;;5023054;28;20064;-62
2024/02/06 14:12:11;;;;;;;14.73;2.50;;;;;;;;;;5031825;28;20136;-61
2024/02/06 14:14:37;;;;;;;15.93;1.90;;;;;;;;;;4980951;28;20061;-62
2024/02/06 14:17:07;;;;;;;6.65;1.42;;;;;;;;;;5016799;28;20079;-63
2024/02/06 14:19:34;;;;;;;11.68;2.08;;;;;;;;;;5025523;28;20064;-63
2024/02/06 14:22:01;;;;;;;14.02;1.77;;;;;;;;;;5020428;28;20056;-62
2024/02/06 14:24:31;;;;;;;14.40;2.17;;;;;;;;;;4985861;28;20136;-62
2024/02/06 14:26:58;;;;;;;12.35;2.25;;;;;;;;;;5029060;28;20126;-62
2024/02/06 14:29:25;;;;;;;13.77;2.00;;;;;;;;;;5030634;28;20067;-62
2024/02/06 14:31:53;;;;;;;12.80;1.85;;;;;;;;;;5022228;28;20045;-62
2024/02/06 14:34:24;;;;;;;14.05;2.15;;;;;;;;;;5034779;28;20224;-63
2024/02/06 14:36:51;;;;;;;15.32;2.25;;;;;;;;;;5032671;28;20255;-62
2024/02/06 14:39:23;;;;;;;17.73;1.95;;;;;;;;;;5030160;28;20059;-63
2024/02/06 14:41:53;;;;;;;11.65;2.00;;;;;;;;;;5029659;28;20118;-62
2024/02/06 14:44:23;;;;;;;15.68;2.30;;;;;;;;;;5004376;28;20064;-62
2024/02/06 14:46:52;;;;;;;13.35;1.98;;;;;;;;;;5032937;28;20131;-61
2024/02/06 14:49:24;;;;;;;13.60;1.88;;;;;;;;;;5028577;28;20059;-63
2024/02/06 14:51:58;;;;;;;8.27;1.75;;;;;;;;;;5020935;28;20191;-61
2024/02/06 14:54:28;;;;;;;17.35;1.98;;;;;;;;;;5025522;28;20073;-62
2024/02/06 14:56:54;;;;;;;5.57;1.73;;;;;;;;;;5038326;28;20057;-63
2024/02/06 14:59:23;;;;;;;6.55;1.52;;;;;;;;;;5044486;28;20073;-62
2024/02/06 15:01:56;;;;;;;;;;;;;;;;;;5029934;28;20175;-63
2024/02/06 15:04:28;;;;;;;12.55;1.52;;;;;;;;;;5002885;28;19929;-61
2024/02/06 15:06:56;;;;;;;19.40;2.42;;;;;;;;;;5032642;28;20052;-63
2024/02/06 15:09:25;;;;;;;16.15;1.88;;;;;;;;;;5021188;28;20065;-61
2024/02/06 15:11:54;;;;;;;7.32;1.50;;;;;;;;;;5028795;28;20079;-63
2024/02/06 15:14:21;;;;;;;13.52;1.85;;;;;;;;;;5012401;28;20057;-64
2024/02/06 15:16:48;;;;;;;13.95;1.65;;;;;;;;;;5029786;28;20060;-62
2024/02/06 15:19:17;;;;;;;8.85;1.60;;;;;;;;;;5027752;28;20084;-62
2024/02/06 15:21:47;;;;;;;11.40;1.58;;;;;;;;;;5034749;28;20127;-63
2024/02/06 15:24:14;;;;;;;13.05;1.83;;;;;;;;;;5009081;28;20049;-63
2024/02/06 15:26:42;;;;;;;13.40;1.65;;;;;;;;;;5028967;28;20291;-62
2024/02/06 15:29:09;;;;;;;12.60;1.95;;;;;;;;;;5029545;28;20049;-63
2024/02/06 15:31:36;;;;;;;6.68;1.38;;;;;;;;;;5020981;28;20057;-62
2024/02/06 15:34:03;;;;;;;12.32;2.30;;;;;;;;;;5026958;28;20053;-64
2024/02/06 15:36:30;;;;;;;14.68;2.30;;;;;;;;;;5035226;28;20057;-62
2024/02/06 15:38:59;;;;;;;15.23;1.90;;;;;;;;;;5032858;28;20052;-62
2024/02/06 15:41:26;;;;;;;21.73;2.97;;;;;;;;;;5035174;28;20045;-62
2024/02/06 15:43:53;;;;;;;8.13;1.63;;;;;;;;;;5005384;28;20948;-63
2024/02/06 15:46:22;;;;;;;8.70;1.80;;;;;;;;;;4995546;28;20059;-62
2024/02/06 15:48:53;;;;;;;17.98;2.47;;;;;;;;;;5023081;28;20222;-62
2024/02/06 15:51:22;;;;;;;9.50;2.10;;;;;;;;;;5033062;28;20602;-61
2024/02/06 15:53:54;;;;;;;15.07;2.38;;;;;;;;;;5016860;28;20116;-62
2024/02/06 15:56:24;;;;;;;12.45;2.17;;;;;;;;;;5043564;28;20049;-61
2024/02/06 15:58:56;;;;;;;14.88;1.83;;;;;;;;;;5032798;28;20135;-60
2024/02/06 16:01:22;;;;;;;11.80;1.77;;;;;;;;;;5028537;28;20055;-62
2024/02/06 16:03:54;;;;;;;15.02;2.20;;;;;;;;;;5027680;28;21429;-62
2024/02/06 16:06:23;;;;;;;19.45;2.33;;;;;;;;;;5007939;28;20055;-61
2024/02/06 16:08:50;;;;;;;14.77;1.42;;;;;;;;;;5022438;28;20045;-63
2024/02/06 16:11:19;;;;;;;15.32;2.20;;;;;;;;;;5019549;28;20168;-63
2024/02/06 16:13:52;;;;;;;19.45;2.38;;;;;;;;;;5011138;28;20054;-63
2024/02/06 16:16:20;;;;;;;21.42;2.40;;;;;;;;;;5015756;28;20053;-62
2024/02/06 16:18:48;;;;;;;15.07;3.40;;;;;;;;;;5018792;28;20045;-63
2024/02/06 16:21:15;;;;;;;18.17;2.30;;;;;;;;;;5028194;28;20098;-63
2024/02/06 16:23:44;;;;;;;19.88;2.50;;;;;;;;;;5018830;28;20130;-62
2024/02/06 16:26:10;;;;;;;12.98;1.92;;;;;;;;;;5007340;28;20203;-62
2024/02/06 16:28:37;;;;;;;10.02;1.58;;;;;;;;;;5028556;28;20147;-62
2024/02/06 16:31:05;;;;;;;15.27;2.53;;;;;;;;;;5032331;28;20069;-61
2024/02/06 16:33:33;;;;;;;17.88;2.63;;;;;;;;;;5024617;28;20057;-62
2024/02/06 16:36:01;;;;;;;17.55;2.55;;;;;;;;;;5007868;28;20052;-62
2024/02/06 16:38:27;;;;;;;10.57;1.52;;;;;;;;;;5020789;28;20084;-61
2024/02/06 16:40:54;;;;;;;23.15;3.15;;;;;;;;;;5030808;28;20052;-62
2024/02/06 16:43:21;;;;;;;30.10;4.25;;;;;;;;;;5027907;28;20049;-61
2024/02/06 16:45:48;;;;;;;9.57;2.05;;;;;;;;;;4997835;28;20060;-62
2024/02/06 16:48:17;;;;;;;17.08;2.83;;;;;;;;;;5015525;28;20059;-64
2024/02/06 16:50:43;;;;;;;;;;;;;;;;;;5026507;28;20057;-62
2024/02/06 16:53:10;;;;;;;19.45;2.85;;;;;;;;;;5031035;28;20010;-61
2024/02/06 16:55:38;;;;;;;19.13;3.20;;;;;;;;;;5017159;28;20077;-62
2024/02/06 16:58:04;;;;;;;22.33;3.10;;;;;;;;;;5020270;28;20190;-61
2024/02/06 17:00:31;;;;;;;8.55;1.70;;;;;;;;;;5032385;28;20114;-62
2024/02/06 17:02:58;;;;;;;14.23;2.75;;;;;;;;;;5032216;28;20049;-61
2024/02/06 17:05:28;;;;;;;19.77;2.63;;;;;;;;;;5001594;28;20061;-62
2024/02/06 17:07:55;;;;;;;27.65;3.25;;;;;;;;;;5013807;28;20081;-62
2024/02/06 17:10:22;;;;;;;18.17;2.78;;;;;;;;;;5023864;28;20052;-62
2024/02/06 17:12:50;;;;;;;17.88;3.30;;;;;;;;;;5016438;28;20049;-62
2024/02/06 17:15:17;;;;;;;20.23;2.80;;;;;;;;;;5012156;28;20056;-62
2024/02/06 17:17:44;;;;;;;13.43;2.92;;;;;;;;;;5018240;28;20048;-62
2024/02/06 17:20:12;;;;;;;10.95;2.38;;;;;;;;;;5017777;28;20049;-61
2024/02/06 17:22:41;;;;;;;21.75;3.13;;;;;;;;;;5026276;28;20060;-61
2024/02/06 17:25:09;;;;;;;12.23;3.00;;;;;;;;;;5025431;28;20151;-62
2024/02/06 17:27:36;;;;;;;;;;;;;;;;;;5022822;28;20076;-61
2024/02/06 17:30:03;;;;;;;21.60;2.75;;;;;;;;;;5017592;28;20201;-61
2024/02/06 17:32:30;;;;;;;15.60;2.63;;;;;;;;;;5027355;28;20198;-63
2024/02/06 17:34:57;;;;;;;7.97;2.10;;;;;;;;;;5022623;28;20195;-63
2024/02/06 17:37:23;;;;;;;14.88;2.80;;;;;;;;;;5020163;28;20049;-63
2024/02/06 17:39:53;;;;;;;15.55;2.08;;;;;;;;;;5019508;28;20114;-62
2024/02/06 17:42:22;;;;;;;14.43;2.78;;;;;;;;;;5021502;28;20084;-62
2024/02/06 17:44:48;;;;;;;;;;;;;;;;;;5016379;28;20068;-63
2024/02/06 17:47:18;;;;;;;13.73;2.85;;;;;;;;;;5030077;28;19957;-63
2024/02/06 17:49:47;;;;;;;9.88;2.10;;;;;;;;;;5023938;28;20075;-63
2024/02/06 17:52:14;;;;;;;5.45;1.98;;;;;;;;;;5018049;28;20060;-62
2024/02/06 17:54:41;;;;;;;15.65;2.60;;;;;;;;;;5008256;28;20152;-64
2024/02/06 17:57:10;;;;;;;11.80;2.60;;;;;;;;;;5012488;28;20168;-63
2024/02/06 17:59:38;;;;;;;22.02;4.25;;;;;;;;;;5026834;28;20136;-63
2024/02/06 18:02:05;;;;;;;25.25;4.10;;;;;;;;;;5016782;28;20333;-64
2024/02/06 18:04:31;;;;;;;13.43;2.40;;;;;;;;;;5017794;28;20123;-64
2024/02/06 18:06:58;;;;;;;8.18;2.83;;;;;;;;;;5028191;28;20084;-62
2024/02/06 18:09:28;;;;;;;15.43;2.75;;;;;;;;;;5022557;28;20060;-63
2024/02/06 18:11:56;;;;;;;16.23;2.92;;;;;;;;;;5012114;28;20140;-62
2024/02/06 18:14:24;;;;;;;9.68;2.72;;;;;;;;;;4995612;28;20061;-63
2024/02/06 18:17:12;;;;;;;22.67;3.00;;;;;;;;;;5016892;28;20162;-62
2024/02/06 18:19:39;;;;;;;15.57;2.42;;;;;;;;;;5018347;28;20061;-62
2024/02/06 18:22:06;;;;;;;16.15;2.47;;;;;;;;;;5016567;28;20136;-63
2024/02/06 18:24:32;;;;;;;14.38;2.90;;;;;;;;;;5007921;28;20227;-63
2024/02/06 18:26:59;;;;;;;14.93;3.90;;;;;;;;;;5027877;28;20053;-64
2024/02/06 18:29:27;;;;;;;14.52;2.72;;;;;;;;;;5020193;28;20049;-62
2024/02/06 18:31:54;;;;;;;29.25;3.67;;;;;;;;;;5017264;28;20054;-64
2024/02/06 18:34:21;;;;;;;20.63;2.95;;;;;;;;;;5003855;28;20045;-63
2024/02/06 18:36:48;;;;;;;12.18;2.28;;;;;;;;;;5011030;28;20069;-62
2024/02/06 18:39:15;;;;;;;15.48;3.05;;;;;;;;;;5018857;28;20131;-62
2024/02/06 18:41:45;;;;;;;11.27;3.05;;;;;;;;;;5032412;28;20144;-63
2024/02/06 18:44:11;;;;;;;14.70;2.55;;;;;;;;;;5020033;28;20202;-63
2024/02/06 18:46:40;;;;;;;11.60;2.60;;;;;;;;;;5019065;28;20061;-64
2024/02/06 18:49:07;;;;;;;12.85;2.78;;;;;;;;;;5019025;28;20057;-62
2024/02/06 18:51:34;;;;;;;13.73;2.58;;;;;;;;;;5021606;28;20057;-62
2024/02/06 18:54:01;;;;;;;20.58;3.25;;;;;;;;;;5007184;28;20064;-62
2024/02/06 18:56:28;;;;;;;19.23;3.97;;;;;;;;;;5019994;28;20238;-65
2024/02/06 18:58:55;;;;;;;18.73;3.75;;;;;;;;;;5022148;28;20116;-64
2024/02/06 19:01:23;;;;;;;9.43;2.85;;;;;;;;;;5025800;28;20049;-68
2024/02/06 19:03:51;;;;;;;16.02;2.97;;;;;;;;;;5003642;28;20095;-65
2024/02/06 19:06:18;;;;;;;15.00;3.30;;;;;;;;;;5029168;28;20168;-65
2024/02/06 19:08:47;;;;;;;27.00;3.85;;;;;;;;;;5030370;28;20061;-66
2024/02/06 19:11:15;;;;;;;20.60;3.17;;;;;;;;;;5041165;28;20143;-66
2024/02/06 19:13:43;;;;;;;20.13;2.97;;;;;;;;;;5018333;28;20089;-65
2024/02/06 19:16:15;;;;;;;18.45;3.67;;;;;;;;;;4993473;28;20072;-65
2024/02/06 19:18:42;;;;;;;12.23;3.00;;;;;;;;;;5027230;28;20067;-65
2024/02/06 19:21:23;;;;;;;14.77;2.63;;;;;;;;;;5022110;28;20053;-65
2024/02/06 19:23:49;;;;;;;15.73;2.88;;;;;;;;;;5027957;28;20153;-66
2024/02/06 19:26:16;;;;;;;11.02;2.58;;;;;;;;;;5021195;28;20049;-65
2024/02/06 19:28:45;;;;;;;10.65;3.58;;;;;;;;;;5026795;28;20067;-66
2024/02/06 19:31:12;;;;;;;18.67;3.55;;;;;;;;;;5021856;28;20042;-65
2024/02/06 19:33:38;;;;;;;13.90;3.22;;;;;;;;;;5024299;28;20053;-66
2024/02/06 19:36:06;;;;;;;10.65;2.40;;;;;;;;;;5011029;28;20052;-67
2024/02/06 19:38:36;;;;;;;15.27;2.53;;;;;;;;;;5036257;28;20057;-66
2024/02/06 19:41:04;;;;;;;9.85;2.28;;;;;;;;;;5021565;28;20056;-67
2024/02/06 19:43:35;;;;;;;11.65;2.85;;;;;;;;;;5021393;28;20065;-67
2024/02/06 19:46:05;;;;;;;13.95;2.95;;;;;;;;;;4960089;28;20057;-67
2024/02/06 19:48:33;;;;;;;13.00;2.67;;;;;;;;;;5018606;28;20065;-66
2024/02/06 19:51:00;;;;;;;17.95;3.72;;;;;;;;;;5021251;28;20211;-67
2024/02/06 19:53:27;;;;;;;16.85;3.75;;;;;;;;;;5026955;28;20053;-67
2024/02/06 19:55:56;;;;;;;15.32;4.15;;;;;;;;;;5014596;28;20085;-68
2024/02/06 19:58:22;;;;;;;;;;;;;;;;;;5028474;28;20120;-67
2024/02/06 20:00:49;;;;;;;10.70;3.40;;;;;;;;;;5021854;28;19937;-68
2024/02/06 20:03:16;;;;;;;15.23;3.47;;;;;;;;;;5031623;28;20056;-66
2024/02/06 20:05:44;;;;;;;17.25;3.17;;;;;;;;;;4981027;28;20099;-68
2024/02/06 20:08:11;;;;;;;14.57;2.92;;;;;;;;;;5002681;28;20168;-68
2024/02/06 20:10:38;;;;;;;19.83;3.97;;;;;;;;;;5000941;28;20056;-67
2024/02/06 20:13:12;;;;;;;17.52;3.15;;;;;;;;;;4997089;28;20096;-66
2024/02/06 20:16:07;;;;;;;;;;;;;;;;;;;;;
2024/02/06 20:18:55;;;;;;;21.55;3.72;;;;;;;;;;4975356;28;20092;-69
2024/02/06 20:21:26;;;;;;;7.93;2.13;;;;;;;;;;4997606;28;20053;-69
2024/02/06 20:23:53;;;;;;;5.57;1.70;;;;;;;;;;4988850;28;20076;-69
2024/02/06 20:26:20;;;;;;;14.65;2.63;;;;;;;;;;4993107;28;20053;-68
2024/02/06 20:28:49;;;;;;;10.35;2.53;;;;;;;;;;5003798;28;20057;-68
2024/02/06 20:31:17;;;;;;;18.60;2.90;;;;;;;;;;5006409;28;20140;-68
2024/02/06 20:33:46;;;;;;;;;;;;;;;;;;4996049;28;20076;-68
2024/02/06 20:36:20;;;;;;;8.32;1.88;;;;;;;;;;4966925;28;20038;-69
2024/02/06 20:39:00;;;;;;;13.93;2.65;;;;;;;;;;5015227;28;20051;-70
2024/02/06 20:41:28;;;;;;;9.82;3.05;;;;;;;;;;5004512;28;20053;-70
2024/02/06 20:43:59;;;;;;;16.45;3.00;;;;;;;;;;4990889;28;20144;-69
2024/02/06 20:46:28;;;;;;;16.58;2.60;;;;;;;;;;4936670;28;20058;-68
2024/02/06 20:49:01;;;;;;;11.80;2.33;;;;;;;;;;5001989;28;20065;-70
2024/02/06 20:51:32;;;;;;;18.10;3.30;;;;;;;;;;5017753;28;20045;-71